createdAt,value
2018-04-18T00:00:20.721Z,12.57
2018-04-18T00:02:48.261Z,13.47
2018-04-18T00:05:15.825Z,15.47
2018-04-18T00:07:43.366Z,21.20
2018-04-18T00:10:10.883Z,22.07
2018-04-18T00:12:38.396Z,19.30
2018-04-18T00:15:05.962Z,18.67
2018-04-18T00:17:33.492Z,18.00
2018-04-18T00:20:00.996Z,15.63
2018-04-18T00:22:28.460Z,16.03
2018-04-18T00:24:56.067Z,20.77
2018-04-18T00:27:23.527Z,20.70
2018-04-18T00:29:51.113Z,16.30
2018-04-18T00:32:18.672Z,18.27
2018-04-18T00:37:18.874Z,19.60
2018-04-18T00:39:46.449Z,17.73
2018-04-18T00:42:14.036Z,22.30
2018-04-18T00:44:41.525Z,28.03
2018-04-18T00:47:09.071Z,21.33
2018-04-18T00:49:36.531Z,26.23
2018-04-18T00:52:04.024Z,25.03
2018-04-18T00:54:31.504Z,16.73
2018-04-18T00:56:58.996Z,17.77
2018-04-18T00:59:26.479Z,16.57
2018-04-18T01:01:53.969Z,17.00
2018-04-18T01:04:21.449Z,18.93
2018-04-18T01:06:48.948Z,18.33
2018-04-18T01:09:16.408Z,20.10
2018-04-18T01:11:43.889Z,19.97
2018-04-18T01:14:11.384Z,16.60
2018-04-18T01:16:38.845Z,18.90
2018-04-18T01:19:06.404Z,18.80
2018-04-18T01:21:33.873Z,17.70
2018-04-18T01:24:01.356Z,18.57
2018-04-18T01:26:28.857Z,18.80
2018-04-18T01:28:56.332Z,18.60
2018-04-18T01:31:23.838Z,19.40
2018-04-18T01:33:51.307Z,21.30
2018-04-18T01:36:18.785Z,19.33
2018-04-18T01:38:46.346Z,21.20
2018-04-18T01:41:13.828Z,21.27
2018-04-18T01:43:41.330Z,20.47
2018-04-18T01:46:08.833Z,23.37
2018-04-18T01:48:36.410Z,22.03
2018-04-18T01:51:03.928Z,23.60
2018-04-18T01:53:31.529Z,22.10
2018-04-18T01:55:59.032Z,21.87
2018-04-18T01:58:26.533Z,22.57
2018-04-18T02:00:54.025Z,22.20
2018-04-18T02:03:21.500Z,22.00
2018-04-18T02:05:48.978Z,23.63
2018-04-18T02:08:16.468Z,26.03
2018-04-18T02:10:43.992Z,24.20
2018-04-18T02:13:11.464Z,25.50
2018-04-18T02:15:38.962Z,23.50
2018-04-18T02:18:06.501Z,25.90
2018-04-18T02:20:34.026Z,24.63
2018-04-18T02:23:01.541Z,27.30
2018-04-18T02:25:29.023Z,27.47
2018-04-18T02:27:56.525Z,25.30
2018-04-18T02:30:24.013Z,27.37
2018-04-18T02:32:52.637Z,25.57
2018-04-18T02:35:20.089Z,25.40
2018-04-18T02:37:47.586Z,24.67
2018-04-18T02:40:15.147Z,25.57
2018-04-18T02:42:42.680Z,26.53
2018-04-18T02:45:10.215Z,25.53
2018-04-18T02:47:37.706Z,26.70
2018-04-18T02:50:05.241Z,26.37
2018-04-18T02:52:32.716Z,24.43
2018-04-18T02:55:00.192Z,26.47
2018-04-18T02:57:27.678Z,27.47
2018-04-18T02:59:55.135Z,27.73
2018-04-18T03:02:22.608Z,27.23
2018-04-18T03:04:50.112Z,27.53
2018-04-18T03:07:17.567Z,25.53
2018-04-18T03:09:45.077Z,28.87
2018-04-18T03:12:12.619Z,27.80
2018-04-18T03:14:40.132Z,25.83
2018-04-18T03:17:07.727Z,25.77
2018-04-18T03:19:35.187Z,24.80
2018-04-18T03:22:02.664Z,26.67
2018-04-18T03:24:30.123Z,29.07
2018-04-18T03:26:57.612Z,25.67
2018-04-18T03:29:25.104Z,26.47
2018-04-18T03:31:52.586Z,25.90
2018-04-18T03:34:20.137Z,27.57
2018-04-18T03:36:48.517Z,29.20
2018-04-18T03:39:15.979Z,30.37
2018-04-18T03:41:43.485Z,31.83
2018-04-18T03:44:10.968Z,29.97
2018-04-18T03:46:38.523Z,30.93
2018-04-18T03:49:06.033Z,28.33
2018-04-18T03:51:33.531Z,35.73
2018-04-18T03:54:01.045Z,32.60
2018-04-18T03:56:28.544Z,30.63
2018-04-18T03:58:56.022Z,31.80
2018-04-18T04:01:23.538Z,33.90
2018-04-18T04:03:51.018Z,33.40
2018-04-18T04:06:18.491Z,36.93
2018-04-18T04:08:46.173Z,31.17
2018-04-18T04:11:13.725Z,34.27
2018-04-18T04:13:41.220Z,31.23
2018-04-18T04:16:20.676Z,34.47
2018-04-18T04:18:59.972Z,34.10
2018-04-18T04:21:39.360Z,31.87
2018-04-18T04:24:18.716Z,32.70
2018-04-18T04:26:46.305Z,33.17
2018-04-18T04:29:13.816Z,32.00
2018-04-18T04:31:41.275Z,31.70
2018-04-18T04:34:08.747Z,31.47
2018-04-18T04:36:36.220Z,31.50
2018-04-18T04:39:03.700Z,33.40
2018-04-18T04:41:31.157Z,31.17
2018-04-18T04:43:58.623Z,33.93
2018-04-18T04:46:26.131Z,33.77
2018-04-18T04:48:53.598Z,31.37
2018-04-18T04:51:21.059Z,32.13
2018-04-18T04:53:48.635Z,31.30
2018-04-18T04:56:16.162Z,32.33
2018-04-18T04:58:43.671Z,29.83
2018-04-18T05:01:11.180Z,35.77
2018-04-18T05:03:38.650Z,32.97
2018-04-18T05:06:06.108Z,32.27
2018-04-18T05:08:33.600Z,33.17
2018-04-18T05:11:01.163Z,32.90
2018-04-18T05:13:28.624Z,41.83
2018-04-18T05:15:56.112Z,35.17
2018-04-18T05:18:23.578Z,36.77
2018-04-18T05:20:51.052Z,42.63
2018-04-18T05:23:18.617Z,37.70
2018-04-18T05:25:46.082Z,39.73
2018-04-18T05:28:13.610Z,36.63
2018-04-18T05:30:41.096Z,35.60
2018-04-18T05:33:08.586Z,34.80
2018-04-18T05:35:36.052Z,33.30
2018-04-18T05:38:03.503Z,34.93
2018-04-18T05:40:30.983Z,33.77
2018-04-18T05:42:58.440Z,33.03
2018-04-18T05:45:25.893Z,33.77
2018-04-18T05:47:53.431Z,35.23
2018-04-18T05:50:20.994Z,36.53
2018-04-18T05:52:48.472Z,36.00
2018-04-18T05:55:16.120Z,34.47
2018-04-18T05:57:43.611Z,34.20
2018-04-18T06:00:11.066Z,39.10
2018-04-18T06:02:38.575Z,36.80
2018-04-18T06:05:06.074Z,36.30
2018-04-18T06:07:33.589Z,31.97
2018-04-18T06:10:01.109Z,35.27
2018-04-18T06:12:28.699Z,35.03
2018-04-18T06:14:56.160Z,35.23
2018-04-18T06:17:23.655Z,35.60
2018-04-18T06:19:51.115Z,33.10
2018-04-18T06:22:18.640Z,34.63
2018-04-18T06:24:46.146Z,31.20
2018-04-18T06:27:13.664Z,34.53
2018-04-18T06:29:41.216Z,31.30
2018-04-18T06:32:08.791Z,32.80
2018-04-18T06:34:36.284Z,34.70
2018-04-18T06:37:03.773Z,34.13
2018-04-18T06:39:31.285Z,31.30
2018-04-18T06:41:58.767Z,34.87
2018-04-18T06:44:26.356Z,32.60
2018-04-18T06:46:53.857Z,31.47
2018-04-18T06:49:21.348Z,34.77
2018-04-18T06:51:48.922Z,32.67
2018-04-18T06:54:16.388Z,31.63
2018-04-18T06:56:43.882Z,32.67
2018-04-18T06:59:11.379Z,30.80
2018-04-18T07:01:38.843Z,27.57
2018-04-18T07:04:06.320Z,30.57
2018-04-18T07:06:33.775Z,31.00
2018-04-18T07:09:01.327Z,31.53
2018-04-18T07:11:28.833Z,27.30
2018-04-18T07:13:56.287Z,25.70
2018-04-18T07:16:23.822Z,32.77
2018-04-18T07:18:51.275Z,26.43
2018-04-18T07:21:18.793Z,26.73
2018-04-18T07:23:46.308Z,28.47
2018-04-18T07:26:13.810Z,26.50
2018-04-18T07:28:41.335Z,25.67
2018-04-18T07:31:08.899Z,24.17
2018-04-18T07:33:36.404Z,22.50
2018-04-18T07:36:03.894Z,24.17
2018-04-18T07:38:31.374Z,24.90
2018-04-18T07:40:58.876Z,24.07
2018-04-18T07:43:26.361Z,21.53
2018-04-18T07:45:53.860Z,20.33
2018-04-18T07:48:21.385Z,20.83
2018-04-18T07:50:48.954Z,20.60
2018-04-18T07:53:16.429Z,20.80
2018-04-18T07:55:43.881Z,18.80
2018-04-18T07:58:11.400Z,20.20
2018-04-18T08:00:38.896Z,19.83
2018-04-18T08:03:06.393Z,18.57
2018-04-18T08:05:33.904Z,19.10
2018-04-18T08:08:01.376Z,20.33
2018-04-18T08:10:28.834Z,18.03
2018-04-18T08:12:56.306Z,20.00
2018-04-18T08:15:23.841Z,18.93
2018-04-18T08:17:51.304Z,18.50
2018-04-18T08:20:18.787Z,16.93
2018-04-18T08:22:46.248Z,14.53
2018-04-18T08:25:13.717Z,13.57
2018-04-18T08:27:53.198Z,18.40
2018-04-18T08:30:20.761Z,15.33
2018-04-18T08:32:48.342Z,17.70
2018-04-18T08:35:15.800Z,13.90
2018-04-18T08:37:43.297Z,13.77
2018-04-18T08:40:10.791Z,15.17
2018-04-18T08:42:38.285Z,14.63
2018-04-18T08:45:05.876Z,17.30
2018-04-18T08:47:33.352Z,19.77
2018-04-18T08:50:00.837Z,16.40
2018-04-18T08:52:28.343Z,23.37
2018-04-18T08:54:55.816Z,16.57
2018-04-18T08:57:23.315Z,16.70
2018-04-18T08:59:50.799Z,16.33
2018-04-18T09:02:18.285Z,17.97
2018-04-18T09:04:45.797Z,17.70
2018-04-18T09:07:13.313Z,19.27
2018-04-18T09:09:40.824Z,19.13
2018-04-18T09:12:08.323Z,18.93
2018-04-18T09:14:35.881Z,20.20
2018-04-18T09:17:03.361Z,19.13
2018-04-18T09:19:30.852Z,18.50
2018-04-18T09:21:58.328Z,19.27
2018-04-18T09:24:25.780Z,18.30
2018-04-18T09:26:53.251Z,18.03
2018-04-18T09:29:20.849Z,16.50
2018-04-18T09:31:48.311Z,17.27
2018-04-18T09:34:15.780Z,18.50
2018-04-18T09:36:43.256Z,17.97
2018-04-18T09:39:10.747Z,18.93
2018-04-18T09:41:38.245Z,18.30
2018-04-18T09:44:05.728Z,19.70
2018-04-18T09:46:33.277Z,19.00
2018-04-18T09:49:00.752Z,15.70
2018-04-18T09:51:28.268Z,15.77
2018-04-18T09:53:55.737Z,16.10
2018-04-18T09:56:23.224Z,15.83
2018-04-18T09:58:50.703Z,16.93
2018-04-18T10:01:20.137Z,16.00
2018-04-18T10:03:53.276Z,15.40
2018-04-18T10:06:20.727Z,15.60
2018-04-18T10:08:48.180Z,16.70
2018-04-18T10:11:15.648Z,15.10
2018-04-18T10:13:43.195Z,15.13
2018-04-18T10:16:10.745Z,13.43
2018-04-18T10:18:38.213Z,15.77
2018-04-18T10:21:05.777Z,14.33
2018-04-18T10:23:33.299Z,14.10
2018-04-18T10:26:00.880Z,13.70
2018-04-18T10:28:28.368Z,15.07
2018-04-18T10:30:55.853Z,14.00
2018-04-18T10:33:23.333Z,13.37
2018-04-18T10:35:50.920Z,13.03
2018-04-18T10:38:18.399Z,12.40
2018-04-18T10:40:45.868Z,11.47
2018-04-18T10:43:13.340Z,11.97
2018-04-18T10:45:40.844Z,11.60
2018-04-18T10:48:08.303Z,12.20
2018-04-18T10:50:35.824Z,12.60
2018-04-18T10:53:03.288Z,13.00
2018-04-18T10:55:30.782Z,12.00
2018-04-18T10:57:58.274Z,11.67
2018-04-18T11:00:25.764Z,10.70
2018-04-18T11:02:53.248Z,12.10
2018-04-18T11:05:20.753Z,11.47
2018-04-18T11:07:48.265Z,11.50
2018-04-18T11:10:15.747Z,11.83
2018-04-18T11:12:43.245Z,10.80
2018-04-18T11:15:10.715Z,11.80
2018-04-18T11:17:38.216Z,12.07
2018-04-18T11:20:05.682Z,11.90
2018-04-18T11:22:33.192Z,12.10
2018-04-18T11:25:00.754Z,12.67
2018-04-18T11:27:28.279Z,12.30
2018-04-18T11:29:55.791Z,12.20
2018-04-18T11:32:23.251Z,11.57
2018-04-18T11:34:50.760Z,9.63
2018-04-18T11:37:18.261Z,11.63
2018-04-18T11:39:45.834Z,10.67
2018-04-18T11:42:13.297Z,13.07
2018-04-18T11:44:40.816Z,11.07
2018-04-18T11:47:08.310Z,10.00
2018-04-18T11:49:35.807Z,10.63
2018-04-18T11:52:03.325Z,11.70
2018-04-18T11:54:30.778Z,10.63
2018-04-18T11:56:58.244Z,11.80
2018-04-18T11:59:25.739Z,9.33
2018-04-18T12:01:53.276Z,10.97
2018-04-18T12:04:20.766Z,11.40
2018-04-18T12:06:48.364Z,11.07
2018-04-18T12:09:15.861Z,10.40
2018-04-18T12:11:43.348Z,9.27
2018-04-18T12:14:10.823Z,9.20
2018-04-18T12:16:38.316Z,10.00
2018-04-18T12:19:05.888Z,9.70
2018-04-18T12:21:33.366Z,9.20
2018-04-18T12:24:00.854Z,10.40
2018-04-18T12:26:28.394Z,8.50
2018-04-18T12:28:55.871Z,9.00
2018-04-18T12:31:23.376Z,8.03
2018-04-18T12:33:50.879Z,8.53
2018-04-18T12:36:18.346Z,9.20
2018-04-18T12:38:45.812Z,8.30
2018-04-18T12:41:13.314Z,8.00
2018-04-18T12:43:40.810Z,8.90
2018-04-18T12:46:08.324Z,7.70
2018-04-18T12:48:35.795Z,8.93
2018-04-18T12:51:03.288Z,9.47
2018-04-18T12:53:30.843Z,8.07
2018-04-18T12:55:58.314Z,8.00
2018-04-18T12:58:25.775Z,7.50
2018-04-18T13:00:53.234Z,6.43
2018-04-18T13:03:20.733Z,5.67
2018-04-18T13:05:48.218Z,7.43
2018-04-18T13:08:15.721Z,7.47
2018-04-18T13:10:43.352Z,6.40
2018-04-18T13:13:10.815Z,5.67
2018-04-18T13:15:38.336Z,6.60
2018-04-18T13:18:05.802Z,7.70
2018-04-18T13:20:33.324Z,6.73
2018-04-18T13:23:00.808Z,7.20
2018-04-18T13:25:28.355Z,8.87
2018-04-18T13:27:55.869Z,5.90
2018-04-18T13:30:23.470Z,7.03
2018-04-18T13:32:50.954Z,6.63
2018-04-18T13:35:18.459Z,6.77
2018-04-18T13:37:45.917Z,7.37
2018-04-18T13:40:13.412Z,7.77
2018-04-18T13:42:40.872Z,8.23
2018-04-18T13:45:08.353Z,7.47
2018-04-18T13:47:35.824Z,6.70
2018-04-18T13:50:03.407Z,7.40
2018-04-18T13:52:30.893Z,8.13
2018-04-18T13:54:58.417Z,6.73
2018-04-18T13:57:25.930Z,6.93
2018-04-18T13:59:53.444Z,6.50
2018-04-18T14:02:20.916Z,6.80
2018-04-18T14:04:48.439Z,6.67
2018-04-18T14:07:15.933Z,6.77
2018-04-18T14:09:43.467Z,6.67
2018-04-18T14:12:10.923Z,7.20
2018-04-18T14:14:38.467Z,7.40
2018-04-18T14:17:05.952Z,6.80
2018-04-18T14:19:33.460Z,7.70
2018-04-18T14:22:00.915Z,5.80
2018-04-18T14:24:28.379Z,6.00
2018-04-18T14:26:55.836Z,6.07
2018-04-18T14:29:23.318Z,6.50
2018-04-18T14:31:50.882Z,6.00
2018-04-18T14:34:18.477Z,6.30
2018-04-18T14:36:45.971Z,5.43
2018-04-18T14:39:13.455Z,5.70
2018-04-18T14:41:40.975Z,5.40
2018-04-18T14:44:08.443Z,9.67
2018-04-18T14:46:35.943Z,6.40
2018-04-18T14:49:03.407Z,6.10
2018-04-18T14:51:30.909Z,6.97
2018-04-18T14:53:58.437Z,7.50
2018-04-18T14:56:25.894Z,6.87
2018-04-18T14:58:53.390Z,6.90
2018-04-18T15:01:20.893Z,8.50
2018-04-18T15:03:48.369Z,7.03
2018-04-18T15:06:15.889Z,7.00
2018-04-18T15:08:43.490Z,7.20
2018-04-18T15:11:11.014Z,5.90
2018-04-18T15:13:38.522Z,5.60
2018-04-18T15:16:06.020Z,6.53
2018-04-18T15:18:33.510Z,6.80
2018-04-18T15:21:01.089Z,6.70
2018-04-18T15:23:28.631Z,5.77
2018-04-18T15:25:56.332Z,6.20
2018-04-18T15:28:23.815Z,5.80
2018-04-18T15:30:51.288Z,5.70
2018-04-18T15:33:18.752Z,5.40
2018-04-18T15:35:46.266Z,5.73
2018-04-18T15:38:13.768Z,6.00
2018-04-18T15:40:41.258Z,7.53
2018-04-18T15:43:08.772Z,6.10
2018-04-18T15:45:36.259Z,6.20
2018-04-18T15:48:09.612Z,7.23
2018-04-18T15:50:37.239Z,7.17
2018-04-18T15:53:04.700Z,6.97
2018-04-18T15:55:32.235Z,6.30
2018-04-18T15:57:59.750Z,5.80
2018-04-18T16:00:27.233Z,6.13
2018-04-18T16:02:54.709Z,6.80
2018-04-18T16:05:22.186Z,5.33
2018-04-18T16:07:49.673Z,6.33
2018-04-18T16:10:17.166Z,5.90
2018-04-18T16:12:44.669Z,5.83
2018-04-18T16:15:12.139Z,5.40
2018-04-18T16:17:39.583Z,6.80
2018-04-18T16:20:07.076Z,6.00
2018-04-18T16:22:34.585Z,6.10
2018-04-18T16:25:02.099Z,6.73
2018-04-18T16:27:29.559Z,6.80
2018-04-18T16:29:57.059Z,7.37
2018-04-18T16:32:24.571Z,7.87
2018-04-18T16:34:52.061Z,7.80
2018-04-18T16:37:19.512Z,7.80
2018-04-18T16:39:47.010Z,7.80
2018-04-18T16:42:14.513Z,8.40
2018-04-18T16:44:42.107Z,7.17
2018-04-18T16:47:09.656Z,6.60
2018-04-18T16:49:37.105Z,6.60
2018-04-18T16:52:04.579Z,7.17
2018-04-18T16:54:32.081Z,6.67
2018-04-18T16:56:59.548Z,7.07
2018-04-18T16:59:27.006Z,8.50
2018-04-18T17:01:54.540Z,7.53
2018-04-18T17:04:21.998Z,8.70
2018-04-18T17:06:49.539Z,8.37
2018-04-18T17:09:17.056Z,7.53
2018-04-18T17:11:44.524Z,8.03
2018-04-18T17:14:12.008Z,8.43
2018-04-18T17:16:39.468Z,7.60
2018-04-18T17:19:06.923Z,8.77
2018-04-18T17:21:34.410Z,8.67
2018-04-18T17:24:01.874Z,8.33
2018-04-18T17:26:29.348Z,8.33
2018-04-18T17:28:56.961Z,9.07
2018-04-18T17:31:24.441Z,7.80
2018-04-18T17:33:52.075Z,8.20
2018-04-18T17:36:19.588Z,7.20
2018-04-18T17:38:47.096Z,9.80
2018-04-18T17:41:14.626Z,9.47
2018-04-18T17:43:42.110Z,9.10
2018-04-18T17:46:09.605Z,10.90
2018-04-18T17:48:37.134Z,9.73
2018-04-18T17:51:04.644Z,10.47
2018-04-18T17:53:32.101Z,8.87
2018-04-18T17:55:59.555Z,11.23
2018-04-18T17:58:27.135Z,8.83
2018-04-18T18:00:54.593Z,8.97
2018-04-18T18:03:22.166Z,9.47
2018-04-18T18:05:49.697Z,10.40
2018-04-18T18:08:17.235Z,8.93
2018-04-18T18:10:44.688Z,9.67
2018-04-18T18:13:12.193Z,10.27
2018-04-18T18:15:39.640Z,9.70
2018-04-18T18:18:07.120Z,9.30
2018-04-18T18:20:34.636Z,13.70
2018-04-18T18:23:02.241Z,14.00
2018-04-18T18:25:29.757Z,11.37
2018-04-18T18:27:57.362Z,11.47
2018-04-18T18:30:24.893Z,12.53
2018-04-18T18:32:52.392Z,12.77
2018-04-18T18:35:19.917Z,13.40
2018-04-18T18:37:47.425Z,13.33
2018-04-18T18:40:14.941Z,13.70
2018-04-18T18:42:42.436Z,14.37
2018-04-18T18:45:09.948Z,14.47
2018-04-18T18:47:37.443Z,17.93
2018-04-18T18:50:04.902Z,18.70
2018-04-18T18:52:32.411Z,15.80
2018-04-18T18:54:59.908Z,15.20
2018-04-18T18:57:27.446Z,15.70
2018-04-18T18:59:54.961Z,16.60
2018-04-18T19:02:22.462Z,18.00
2018-04-18T19:04:49.987Z,19.00
2018-04-18T19:07:17.477Z,20.23
2018-04-18T19:09:44.972Z,21.00
2018-04-18T19:12:12.452Z,25.67
2018-04-18T19:14:39.911Z,18.67
2018-04-18T19:17:07.407Z,19.80
2018-04-18T19:19:34.934Z,18.70
2018-04-18T19:22:02.409Z,19.80
2018-04-18T19:24:29.928Z,18.27
2018-04-18T19:26:57.423Z,17.70
2018-04-18T19:29:24.908Z,18.40
2018-04-18T19:31:52.437Z,16.83
2018-04-18T19:34:19.957Z,19.50
2018-04-18T19:36:47.528Z,23.13
2018-04-18T19:39:15.070Z,24.00
2018-04-18T19:41:42.629Z,24.57
2018-04-18T19:44:10.104Z,26.13
2018-04-18T19:46:37.589Z,24.57
2018-04-18T19:49:05.173Z,28.07
2018-04-18T19:51:32.664Z,24.73
2018-04-18T19:54:00.116Z,25.50
2018-04-18T19:56:27.612Z,26.60
2018-04-18T19:58:55.069Z,24.80
2018-04-18T20:01:22.565Z,22.93
2018-04-18T20:03:50.052Z,23.93
2018-04-18T20:06:17.566Z,23.20
2018-04-18T20:08:45.064Z,24.43
2018-04-18T20:11:12.525Z,25.00
2018-04-18T20:13:40.040Z,23.17
2018-04-18T20:16:07.531Z,25.60
2018-04-18T20:18:35.027Z,28.00
2018-04-18T20:21:02.518Z,27.90
2018-04-18T20:23:29.983Z,27.30
2018-04-18T20:25:57.471Z,31.23
2018-04-18T20:28:25.033Z,37.33
2018-04-18T20:30:52.475Z,28.77
2018-04-18T20:33:19.990Z,29.70
2018-04-18T20:35:47.486Z,46.30
2018-04-18T20:38:14.939Z,36.53
2018-04-18T20:40:42.420Z,33.17
2018-04-18T20:43:09.956Z,32.10
2018-04-18T20:45:37.414Z,29.03
2018-04-18T20:48:04.891Z,29.10
2018-04-18T20:50:32.440Z,29.03
2018-04-18T20:52:59.995Z,29.43
2018-04-18T20:55:27.506Z,32.90
2018-04-18T20:57:55.060Z,29.10
2018-04-18T21:00:22.567Z,25.30
2018-04-18T21:02:50.076Z,24.90
2018-04-18T21:05:17.567Z,26.23
2018-04-18T21:07:45.048Z,25.67
2018-04-18T21:10:12.659Z,29.30
2018-04-18T21:12:40.206Z,28.63
2018-04-18T21:15:07.743Z,32.50
2018-04-18T21:17:35.299Z,24.97
2018-04-18T21:20:02.871Z,25.63
2018-04-18T21:22:30.439Z,23.27
2018-04-18T21:24:57.945Z,23.77
2018-04-18T21:27:25.573Z,23.23
2018-04-18T21:29:53.065Z,20.20
2018-04-18T21:32:20.575Z,19.67
2018-04-18T21:34:48.077Z,21.63
2018-04-18T21:37:15.601Z,19.27
2018-04-18T21:39:43.063Z,17.30
2018-04-18T21:42:10.544Z,19.03
2018-04-18T21:44:38.036Z,17.80
2018-04-18T21:47:05.500Z,19.57
2018-04-18T21:49:33.048Z,19.00
2018-04-18T21:52:00.516Z,19.73
2018-04-18T21:54:28.068Z,18.80
2018-04-18T21:56:55.632Z,19.33
2018-04-18T21:59:23.083Z,20.40
2018-04-18T22:01:50.586Z,22.17
2018-04-18T22:04:18.092Z,21.77
2018-04-18T22:06:45.581Z,19.83
2018-04-18T22:09:13.063Z,22.77
2018-04-18T22:11:40.561Z,22.13
2018-04-18T22:14:08.053Z,22.00
2018-04-18T22:16:35.557Z,21.50
2018-04-18T22:19:03.055Z,27.60
2018-04-18T22:21:30.602Z,20.77
2018-04-18T22:23:58.102Z,21.57
2018-04-18T22:26:25.559Z,21.17
2018-04-18T22:28:53.035Z,20.83
2018-04-18T22:31:20.525Z,19.93
2018-04-18T22:33:48.022Z,19.73
2018-04-18T22:36:15.554Z,19.87
2018-04-18T22:38:43.161Z,22.57
2018-04-18T22:41:10.721Z,20.77
2018-04-18T22:43:38.235Z,21.77
2018-04-18T22:46:05.692Z,21.07
2018-04-18T22:48:33.153Z,21.47
2018-04-18T22:51:00.661Z,22.40
2018-04-18T22:53:28.140Z,21.13
2018-04-18T22:55:55.649Z,20.30
2018-04-18T22:58:23.153Z,19.10
2018-04-18T23:00:50.611Z,20.73
2018-04-18T23:03:18.084Z,20.70
2018-04-18T23:05:45.555Z,19.50
2018-04-18T23:08:13.103Z,22.23
2018-04-18T23:10:40.664Z,19.90
2018-04-18T23:13:08.176Z,20.73
2018-04-18T23:15:35.737Z,20.07
2018-04-18T23:18:03.261Z,23.00
2018-04-18T23:20:30.803Z,23.10
2018-04-18T23:22:58.296Z,22.17
2018-04-18T23:25:25.797Z,21.27
2018-04-18T23:27:53.298Z,22.50
2018-04-18T23:30:20.862Z,21.10
2018-04-18T23:32:48.382Z,20.30
2018-04-18T23:35:15.867Z,22.00
2018-04-18T23:37:43.390Z,23.17
2018-04-18T23:40:10.905Z,23.17
2018-04-18T23:42:38.391Z,22.20
2018-04-18T23:45:05.894Z,23.13
2018-04-18T23:47:33.367Z,21.80
2018-04-18T23:50:00.863Z,23.07
2018-04-18T23:52:28.471Z,21.73
2018-04-18T23:54:55.931Z,22.27
2018-04-18T23:57:23.418Z,23.33
2018-04-18T23:59:50.933Z,22.13
